sensor_id;sensor_type;location;lat;lon;timestamp;P1;durP1;ratioP1;P2;durP2;ratioP2
12482;SDS011;6306;47.134;15.344;2022-08-05T00:00:17;5.03;;;4.10;;
12482;SDS011;6306;47.134;15.344;2022-08-05T00:02:43;4.63;;;4.23;;
12482;SDS011;6306;47.134;15.344;2022-08-05T00:05:09;4.53;;;4.17;;
12482;SDS011;6306;47.134;15.344;2022-08-05T00:07:35;4.40;;;4.00;;
12482;SDS011;6306;47.134;15.344;2022-08-05T00:10:02;3.63;;;3.30;;
12482;SDS011;6306;47.134;15.344;2022-08-05T00:12:28;4.77;;;4.27;;
12482;SDS011;6306;47.134;15.344;2022-08-05T00:14:54;4.10;;;3.80;;
12482;SDS011;6306;47.134;15.344;2022-08-05T00:17:20;7.50;;;4.43;;
12482;SDS011;6306;47.134;15.344;2022-08-05T00:19:46;4.47;;;4.10;;
12482;SDS011;6306;47.134;15.344;2022-08-05T00:22:12;3.33;;;3.13;;
12482;SDS011;6306;47.134;15.344;2022-08-05T00:24:39;4.17;;;3.87;;
12482;SDS011;6306;47.134;15.344;2022-08-05T00:27:05;3.87;;;3.67;;
12482;SDS011;6306;47.134;15.344;2022-08-05T00:29:31;3.90;;;3.60;;
12482;SDS011;6306;47.134;15.344;2022-08-05T00:31:57;5.00;;;4.60;;
12482;SDS011;6306;47.134;15.344;2022-08-05T00:34:23;4.63;;;4.27;;
12482;SDS011;6306;47.134;15.344;2022-08-05T00:36:49;4.10;;;3.73;;
12482;SDS011;6306;47.134;15.344;2022-08-05T00:39:15;4.40;;;4.00;;
12482;SDS011;6306;47.134;15.344;2022-08-05T00:41:44;3.87;;;3.57;;
12482;SDS011;6306;47.134;15.344;2022-08-05T00:44:10;4.50;;;4.10;;
12482;SDS011;6306;47.134;15.344;2022-08-05T00:46:36;4.33;;;4.00;;
12482;SDS011;6306;47.134;15.344;2022-08-05T00:49:02;4.57;;;3.60;;
12482;SDS011;6306;47.134;15.344;2022-08-05T00:51:28;3.90;;;3.60;;
12482;SDS011;6306;47.134;15.344;2022-08-05T00:53:54;5.57;;;4.33;;
12482;SDS011;6306;47.134;15.344;2022-08-05T00:56:20;4.93;;;4.53;;
12482;SDS011;6306;47.134;15.344;2022-08-05T00:58:46;4.23;;;3.93;;
12482;SDS011;6306;47.134;15.344;2022-08-05T01:01:13;4.80;;;4.40;;
12482;SDS011;6306;47.134;15.344;2022-08-05T01:03:42;5.33;;;4.93;;
12482;SDS011;6306;47.134;15.344;2022-08-05T01:06:09;4.70;;;4.17;;
12482;SDS011;6306;47.134;15.344;2022-08-05T01:08:36;4.37;;;4.07;;
12482;SDS011;6306;47.134;15.344;2022-08-05T01:11:06;4.13;;;3.83;;
12482;SDS011;6306;47.134;15.344;2022-08-05T01:16:20;4.27;;;3.87;;
12482;SDS011;6306;47.134;15.344;2022-08-05T01:18:50;4.60;;;4.20;;
12482;SDS011;6306;47.134;15.344;2022-08-05T01:29:20;4.53;;;4.07;;
12482;SDS011;6306;47.134;15.344;2022-08-05T01:31:51;4.10;;;3.80;;
12482;SDS011;6306;47.134;15.344;2022-08-05T01:34:20;4.20;;;3.90;;
12482;SDS011;6306;47.134;15.344;2022-08-05T01:36:52;4.67;;;4.27;;
12482;SDS011;6306;47.134;15.344;2022-08-05T01:39:19;7.60;;;4.30;;
12482;SDS011;6306;47.134;15.344;2022-08-05T01:41:46;4.50;;;4.10;;
12482;SDS011;6306;47.134;15.344;2022-08-05T01:44:12;4.77;;;4.07;;
12482;SDS011;6306;47.134;15.344;2022-08-05T01:46:39;7.30;;;4.60;;
12482;SDS011;6306;47.134;15.344;2022-08-05T01:49:07;5.03;;;4.63;;
12482;SDS011;6306;47.134;15.344;2022-08-05T01:51:35;4.60;;;4.20;;
12482;SDS011;6306;47.134;15.344;2022-08-05T01:54:02;4.63;;;4.23;;
12482;SDS011;6306;47.134;15.344;2022-08-05T01:56:29;4.80;;;4.40;;
12482;SDS011;6306;47.134;15.344;2022-08-05T01:58:55;4.60;;;4.20;;
12482;SDS011;6306;47.134;15.344;2022-08-05T02:01:22;5.00;;;4.60;;
12482;SDS011;6306;47.134;15.344;2022-08-05T02:03:49;4.77;;;4.20;;
12482;SDS011;6306;47.134;15.344;2022-08-05T02:06:15;3.83;;;3.53;;
12482;SDS011;6306;47.134;15.344;2022-08-05T02:08:42;4.17;;;3.87;;
12482;SDS011;6306;47.134;15.344;2022-08-05T02:11:09;4.10;;;3.80;;
12482;SDS011;6306;47.134;15.344;2022-08-05T02:16:06;4.60;;;4.20;;
12482;SDS011;6306;47.134;15.344;2022-08-05T02:18:40;4.33;;;3.93;;
12482;SDS011;6306;47.134;15.344;2022-08-05T02:21:17;5.00;;;4.50;;
12482;SDS011;6306;47.134;15.344;2022-08-05T02:23:45;4.67;;;4.30;;
12482;SDS011;6306;47.134;15.344;2022-08-05T02:26:13;4.80;;;4.40;;
12482;SDS011;6306;47.134;15.344;2022-08-05T02:28:41;5.20;;;4.80;;
12482;SDS011;6306;47.134;15.344;2022-08-05T02:31:10;6.20;;;4.30;;
12482;SDS011;6306;47.134;15.344;2022-08-05T02:33:38;4.97;;;4.67;;
12482;SDS011;6306;47.134;15.344;2022-08-05T02:36:07;5.10;;;4.67;;
12482;SDS011;6306;47.134;15.344;2022-08-05T02:38:35;5.40;;;4.90;;
12482;SDS011;6306;47.134;15.344;2022-08-05T02:41:02;5.30;;;4.90;;
12482;SDS011;6306;47.134;15.344;2022-08-05T02:43:28;4.90;;;4.50;;
12482;SDS011;6306;47.134;15.344;2022-08-05T02:45:54;4.20;;;3.90;;
12482;SDS011;6306;47.134;15.344;2022-08-05T02:48:21;6.97;;;4.60;;
12482;SDS011;6306;47.134;15.344;2022-08-05T02:50:48;3.90;;;3.60;;
12482;SDS011;6306;47.134;15.344;2022-08-05T02:53:15;5.20;;;4.27;;
12482;SDS011;6306;47.134;15.344;2022-08-05T02:55:49;4.77;;;4.27;;
12482;SDS011;6306;47.134;15.344;2022-08-05T02:58:17;5.37;;;4.87;;
12482;SDS011;6306;47.134;15.344;2022-08-05T03:00:43;4.93;;;4.33;;
12482;SDS011;6306;47.134;15.344;2022-08-05T03:03:11;4.97;;;4.57;;
12482;SDS011;6306;47.134;15.344;2022-08-05T03:05:38;4.40;;;4.00;;
12482;SDS011;6306;47.134;15.344;2022-08-05T03:08:05;5.27;;;4.80;;
12482;SDS011;6306;47.134;15.344;2022-08-05T03:10:31;5.60;;;5.10;;
12482;SDS011;6306;47.134;15.344;2022-08-05T03:12:57;5.50;;;5.00;;
12482;SDS011;6306;47.134;15.344;2022-08-05T03:15:23;5.03;;;4.53;;
12482;SDS011;6306;47.134;15.344;2022-08-05T03:17:51;4.40;;;4.10;;
12482;SDS011;6306;47.134;15.344;2022-08-05T03:20:17;5.00;;;4.60;;
12482;SDS011;6306;47.134;15.344;2022-08-05T03:22:51;4.40;;;4.00;;
12482;SDS011;6306;47.134;15.344;2022-08-05T03:25:17;5.63;;;5.13;;
12482;SDS011;6306;47.134;15.344;2022-08-05T03:27:44;6.13;;;5.60;;
12482;SDS011;6306;47.134;15.344;2022-08-05T03:30:10;3.80;;;3.57;;
12482;SDS011;6306;47.134;15.344;2022-08-05T03:32:36;4.90;;;4.37;;
12482;SDS011;6306;47.134;15.344;2022-08-05T03:35:02;4.60;;;4.20;;
12482;SDS011;6306;47.134;15.344;2022-08-05T03:37:29;4.90;;;4.50;;
12482;SDS011;6306;47.134;15.344;2022-08-05T03:39:55;7.20;;;5.30;;
12482;SDS011;6306;47.134;15.344;2022-08-05T03:42:22;6.10;;;4.40;;
12482;SDS011;6306;47.134;15.344;2022-08-05T03:44:48;4.83;;;4.40;;
12482;SDS011;6306;47.134;15.344;2022-08-05T03:47:14;4.87;;;4.47;;
12482;SDS011;6306;47.134;15.344;2022-08-05T03:49:40;5.13;;;4.63;;
12482;SDS011;6306;47.134;15.344;2022-08-05T03:52:08;5.33;;;4.80;;
12482;SDS011;6306;47.134;15.344;2022-08-05T03:54:39;5.30;;;4.90;;
12482;SDS011;6306;47.134;15.344;2022-08-05T03:57:09;5.40;;;4.90;;
12482;SDS011;6306;47.134;15.344;2022-08-05T03:59:38;5.47;;;4.97;;
12482;SDS011;6306;47.134;15.344;2022-08-05T04:02:06;4.60;;;4.20;;
12482;SDS011;6306;47.134;15.344;2022-08-05T04:04:32;5.73;;;5.30;;
12482;SDS011;6306;47.134;15.344;2022-08-05T04:06:59;4.60;;;4.30;;
12482;SDS011;6306;47.134;15.344;2022-08-05T04:09:25;6.33;;;4.83;;
12482;SDS011;6306;47.134;15.344;2022-08-05T04:11:53;4.47;;;4.07;;
12482;SDS011;6306;47.134;15.344;2022-08-05T04:14:19;5.93;;;5.43;;
12482;SDS011;6306;47.134;15.344;2022-08-05T04:16:45;5.27;;;4.77;;
12482;SDS011;6306;47.134;15.344;2022-08-05T04:19:12;5.13;;;4.70;;
12482;SDS011;6306;47.134;15.344;2022-08-05T04:21:38;7.40;;;4.47;;
12482;SDS011;6306;47.134;15.344;2022-08-05T04:24:05;5.40;;;4.80;;
12482;SDS011;6306;47.134;15.344;2022-08-05T04:26:31;5.70;;;4.63;;
12482;SDS011;6306;47.134;15.344;2022-08-05T04:28:57;6.60;;;5.97;;
12482;SDS011;6306;47.134;15.344;2022-08-05T04:31:23;5.97;;;5.47;;
12482;SDS011;6306;47.134;15.344;2022-08-05T04:33:49;6.23;;;5.40;;
12482;SDS011;6306;47.134;15.344;2022-08-05T04:36:15;5.77;;;5.27;;
12482;SDS011;6306;47.134;15.344;2022-08-05T04:38:41;5.10;;;4.60;;
12482;SDS011;6306;47.134;15.344;2022-08-05T04:41:07;6.20;;;5.70;;
12482;SDS011;6306;47.134;15.344;2022-08-05T04:43:33;4.93;;;4.50;;
12482;SDS011;6306;47.134;15.344;2022-08-05T04:45:59;5.63;;;5.13;;
12482;SDS011;6306;47.134;15.344;2022-08-05T04:48:27;5.40;;;5.00;;
12482;SDS011;6306;47.134;15.344;2022-08-05T04:50:53;7.13;;;4.60;;
12482;SDS011;6306;47.134;15.344;2022-08-05T04:53:18;5.83;;;5.20;;
12482;SDS011;6306;47.134;15.344;2022-08-05T04:55:45;6.90;;;5.23;;
12482;SDS011;6306;47.134;15.344;2022-08-05T04:58:12;5.03;;;4.47;;
12482;SDS011;6306;47.134;15.344;2022-08-05T05:00:38;6.60;;;6.00;;
12482;SDS011;6306;47.134;15.344;2022-08-05T05:03:05;5.10;;;4.70;;
12482;SDS011;6306;47.134;15.344;2022-08-05T05:05:31;6.03;;;5.53;;
12482;SDS011;6306;47.134;15.344;2022-08-05T05:10:26;6.60;;;5.97;;
12482;SDS011;6306;47.134;15.344;2022-08-05T05:12:52;5.73;;;5.23;;
12482;SDS011;6306;47.134;15.344;2022-08-05T05:15:18;6.20;;;5.67;;
12482;SDS011;6306;47.134;15.344;2022-08-05T05:17:44;6.43;;;5.83;;
12482;SDS011;6306;47.134;15.344;2022-08-05T05:20:11;6.57;;;6.00;;
12482;SDS011;6306;47.134;15.344;2022-08-05T05:22:37;6.93;;;6.23;;
12482;SDS011;6306;47.134;15.344;2022-08-05T05:25:04;9.00;;;5.87;;
12482;SDS011;6306;47.134;15.344;2022-08-05T05:27:30;6.60;;;5.50;;
12482;SDS011;6306;47.134;15.344;2022-08-05T05:29:57;7.70;;;6.60;;
12482;SDS011;6306;47.134;15.344;2022-08-05T05:32:23;9.77;;;7.23;;
12482;SDS011;6306;47.134;15.344;2022-08-05T05:34:49;8.47;;;7.60;;
12482;SDS011;6306;47.134;15.344;2022-08-05T05:37:15;8.90;;;7.33;;
12482;SDS011;6306;47.134;15.344;2022-08-05T05:39:41;7.53;;;6.57;;
12482;SDS011;6306;47.134;15.344;2022-08-05T05:42:07;7.23;;;6.53;;
12482;SDS011;6306;47.134;15.344;2022-08-05T05:44:33;8.10;;;6.60;;
12482;SDS011;6306;47.134;15.344;2022-08-05T05:46:59;8.70;;;7.10;;
12482;SDS011;6306;47.134;15.344;2022-08-05T05:49:26;7.57;;;6.80;;
12482;SDS011;6306;47.134;15.344;2022-08-05T05:51:54;8.50;;;7.13;;
12482;SDS011;6306;47.134;15.344;2022-08-05T05:54:20;7.03;;;6.47;;
12482;SDS011;6306;47.134;15.344;2022-08-05T05:56:46;7.03;;;6.37;;
12482;SDS011;6306;47.134;15.344;2022-08-05T05:59:12;7.53;;;6.10;;
12482;SDS011;6306;47.134;15.344;2022-08-05T06:01:39;9.30;;;5.83;;
12482;SDS011;6306;47.134;15.344;2022-08-05T06:04:06;7.63;;;6.80;;
12482;SDS011;6306;47.134;15.344;2022-08-05T06:06:33;10.87;;;6.70;;
12482;SDS011;6306;47.134;15.344;2022-08-05T06:08:59;10.03;;;6.90;;
12482;SDS011;6306;47.134;15.344;2022-08-05T06:11:24;7.47;;;6.70;;
12482;SDS011;6306;47.134;15.344;2022-08-05T06:13:50;6.17;;;5.57;;
12482;SDS011;6306;47.134;15.344;2022-08-05T06:16:16;7.37;;;6.57;;
12482;SDS011;6306;47.134;15.344;2022-08-05T06:18:43;13.07;;;7.60;;
12482;SDS011;6306;47.134;15.344;2022-08-05T06:21:09;7.60;;;5.77;;
12482;SDS011;6306;47.134;15.344;2022-08-05T06:23:35;8.63;;;7.40;;
12482;SDS011;6306;47.134;15.344;2022-08-05T06:26:01;7.23;;;6.57;;
12482;SDS011;6306;47.134;15.344;2022-08-05T06:28:27;10.90;;;7.20;;
12482;SDS011;6306;47.134;15.344;2022-08-05T06:30:53;8.27;;;7.47;;
12482;SDS011;6306;47.134;15.344;2022-08-05T06:33:19;8.30;;;7.50;;
12482;SDS011;6306;47.134;15.344;2022-08-05T06:35:45;6.67;;;6.03;;
12482;SDS011;6306;47.134;15.344;2022-08-05T06:38:11;7.63;;;6.63;;
12482;SDS011;6306;47.134;15.344;2022-08-05T06:40:37;7.13;;;6.40;;
12482;SDS011;6306;47.134;15.344;2022-08-05T06:43:03;9.50;;;7.07;;
12482;SDS011;6306;47.134;15.344;2022-08-05T06:45:29;5.80;;;5.30;;
12482;SDS011;6306;47.134;15.344;2022-08-05T06:47:55;7.90;;;7.20;;
12482;SDS011;6306;47.134;15.344;2022-08-05T06:50:21;7.23;;;6.53;;
12482;SDS011;6306;47.134;15.344;2022-08-05T06:52:47;9.00;;;6.87;;
12482;SDS011;6306;47.134;15.344;2022-08-05T06:55:13;7.63;;;6.50;;
12482;SDS011;6306;47.134;15.344;2022-08-05T06:57:39;10.70;;;6.43;;
12482;SDS011;6306;47.134;15.344;2022-08-05T07:00:05;7.23;;;6.63;;
12482;SDS011;6306;47.134;15.344;2022-08-05T07:02:31;7.90;;;7.10;;
12482;SDS011;6306;47.134;15.344;2022-08-05T07:04:57;7.57;;;6.87;;
12482;SDS011;6306;47.134;15.344;2022-08-05T07:07:23;7.23;;;6.53;;
12482;SDS011;6306;47.134;15.344;2022-08-05T07:09:49;8.03;;;7.30;;
12482;SDS011;6306;47.134;15.344;2022-08-05T07:12:15;7.23;;;6.43;;
12482;SDS011;6306;47.134;15.344;2022-08-05T07:15:00;9.03;;;6.67;;
12482;SDS011;6306;47.134;15.344;2022-08-05T07:17:44;8.90;;;7.40;;
12482;SDS011;6306;47.134;15.344;2022-08-05T07:20:10;8.30;;;7.50;;
12482;SDS011;6306;47.134;15.344;2022-08-05T07:22:37;7.57;;;6.77;;
12482;SDS011;6306;47.134;15.344;2022-08-05T07:25:03;9.87;;;7.20;;
12482;SDS011;6306;47.134;15.344;2022-08-05T07:27:29;7.70;;;7.07;;
12482;SDS011;6306;47.134;15.344;2022-08-05T07:29:56;8.20;;;7.40;;
12482;SDS011;6306;47.134;15.344;2022-08-05T07:32:22;7.17;;;6.57;;
12482;SDS011;6306;47.134;15.344;2022-08-05T07:34:48;8.70;;;7.80;;
12482;SDS011;6306;47.134;15.344;2022-08-05T07:37:14;7.60;;;6.90;;
12482;SDS011;6306;47.134;15.344;2022-08-05T07:39:40;7.10;;;6.40;;
12482;SDS011;6306;47.134;15.344;2022-08-05T07:42:06;8.73;;;7.80;;
12482;SDS011;6306;47.134;15.344;2022-08-05T07:44:32;6.63;;;6.03;;
12482;SDS011;6306;47.134;15.344;2022-08-05T07:46:58;7.00;;;6.40;;
12482;SDS011;6306;47.134;15.344;2022-08-05T07:49:24;7.57;;;6.77;;
12482;SDS011;6306;47.134;15.344;2022-08-05T07:51:50;7.83;;;6.17;;
12482;SDS011;6306;47.134;15.344;2022-08-05T07:54:16;11.23;;;6.67;;
12482;SDS011;6306;47.134;15.344;2022-08-05T07:56:43;5.80;;;5.30;;
12482;SDS011;6306;47.134;15.344;2022-08-05T07:59:09;4.13;;;3.80;;
12482;SDS011;6306;47.134;15.344;2022-08-05T08:01:34;4.50;;;4.10;;
12482;SDS011;6306;47.134;15.344;2022-08-05T08:04:00;4.23;;;3.93;;
12482;SDS011;6306;47.134;15.344;2022-08-05T08:06:27;4.83;;;4.43;;
12482;SDS011;6306;47.134;15.344;2022-08-05T08:08:54;5.83;;;5.23;;
12482;SDS011;6306;47.134;15.344;2022-08-05T08:11:20;5.00;;;4.60;;
12482;SDS011;6306;47.134;15.344;2022-08-05T08:13:46;4.50;;;4.10;;
12482;SDS011;6306;47.134;15.344;2022-08-05T08:16:12;4.93;;;4.53;;
12482;SDS011;6306;47.134;15.344;2022-08-05T08:18:38;4.63;;;4.23;;
12482;SDS011;6306;47.134;15.344;2022-08-05T08:21:04;5.13;;;4.60;;
12482;SDS011;6306;47.134;15.344;2022-08-05T08:23:30;5.87;;;5.47;;
12482;SDS011;6306;47.134;15.344;2022-08-05T08:25:57;4.57;;;4.20;;
12482;SDS011;6306;47.134;15.344;2022-08-05T08:28:23;4.87;;;4.47;;
12482;SDS011;6306;47.134;15.344;2022-08-05T08:30:49;4.73;;;4.33;;
12482;SDS011;6306;47.134;15.344;2022-08-05T08:33:15;4.97;;;4.50;;
12482;SDS011;6306;47.134;15.344;2022-08-05T08:35:41;5.27;;;4.87;;
12482;SDS011;6306;47.134;15.344;2022-08-05T08:38:07;9.47;;;5.20;;
12482;SDS011;6306;47.134;15.344;2022-08-05T08:40:33;4.60;;;4.20;;
12482;SDS011;6306;47.134;15.344;2022-08-05T08:43:00;9.63;;;5.03;;
12482;SDS011;6306;47.134;15.344;2022-08-05T08:45:27;5.20;;;4.73;;
12482;SDS011;6306;47.134;15.344;2022-08-05T08:47:53;4.30;;;3.90;;
12482;SDS011;6306;47.134;15.344;2022-08-05T08:50:20;4.50;;;4.20;;
12482;SDS011;6306;47.134;15.344;2022-08-05T08:52:49;5.00;;;4.60;;
12482;SDS011;6306;47.134;15.344;2022-08-05T08:55:15;4.87;;;4.43;;
12482;SDS011;6306;47.134;15.344;2022-08-05T08:57:41;4.27;;;3.87;;
12482;SDS011;6306;47.134;15.344;2022-08-05T09:00:07;4.77;;;4.37;;
12482;SDS011;6306;47.134;15.344;2022-08-05T09:02:34;4.67;;;4.37;;
12482;SDS011;6306;47.134;15.344;2022-08-05T09:05:00;4.60;;;4.20;;
12482;SDS011;6306;47.134;15.344;2022-08-05T09:07:26;4.97;;;4.57;;
12482;SDS011;6306;47.134;15.344;2022-08-05T09:09:52;3.93;;;3.53;;
12482;SDS011;6306;47.134;15.344;2022-08-05T09:12:18;4.10;;;3.80;;
12482;SDS011;6306;47.134;15.344;2022-08-05T09:14:44;4.43;;;4.07;;
12482;SDS011;6306;47.134;15.344;2022-08-05T09:17:10;4.67;;;4.27;;
12482;SDS011;6306;47.134;15.344;2022-08-05T09:19:37;4.53;;;3.97;;
12482;SDS011;6306;47.134;15.344;2022-08-05T09:22:03;4.63;;;4.10;;
12482;SDS011;6306;47.134;15.344;2022-08-05T09:24:29;4.27;;;3.90;;
12482;SDS011;6306;47.134;15.344;2022-08-05T09:26:56;5.03;;;4.63;;
12482;SDS011;6306;47.134;15.344;2022-08-05T09:32:06;4.43;;;4.13;;
12482;SDS011;6306;47.134;15.344;2022-08-05T09:34:48;4.17;;;3.87;;
12482;SDS011;6306;47.134;15.344;2022-08-05T09:37:18;5.90;;;3.97;;
12482;SDS011;6306;47.134;15.344;2022-08-05T09:39:44;4.43;;;4.13;;
12482;SDS011;6306;47.134;15.344;2022-08-05T09:42:10;4.87;;;4.47;;
12482;SDS011;6306;47.134;15.344;2022-08-05T09:44:37;4.30;;;4.00;;
12482;SDS011;6306;47.134;15.344;2022-08-05T09:47:05;5.10;;;3.97;;
12482;SDS011;6306;47.134;15.344;2022-08-05T09:49:32;3.87;;;3.57;;
12482;SDS011;6306;47.134;15.344;2022-08-05T09:51:58;4.97;;;4.57;;
12482;SDS011;6306;47.134;15.344;2022-08-05T09:54:29;6.03;;;5.00;;
12482;SDS011;6306;47.134;15.344;2022-08-05T09:56:56;4.50;;;4.10;;
12482;SDS011;6306;47.134;15.344;2022-08-05T09:59:22;3.50;;;3.30;;
12482;SDS011;6306;47.134;15.344;2022-08-05T10:01:48;6.63;;;3.97;;
12482;SDS011;6306;47.134;15.344;2022-08-05T10:04:16;4.20;;;3.90;;
12482;SDS011;6306;47.134;15.344;2022-08-05T10:06:52;4.63;;;4.23;;
12482;SDS011;6306;47.134;15.344;2022-08-05T10:09:18;5.97;;;4.27;;
12482;SDS011;6306;47.134;15.344;2022-08-05T10:11:47;4.70;;;4.30;;
12482;SDS011;6306;47.134;15.344;2022-08-05T10:14:30;4.83;;;4.20;;
12482;SDS011;6306;47.134;15.344;2022-08-05T10:17:10;5.07;;;4.20;;
12482;SDS011;6306;47.134;15.344;2022-08-05T10:19:36;4.73;;;4.33;;
12482;SDS011;6306;47.134;15.344;2022-08-05T10:22:02;5.53;;;3.73;;
12482;SDS011;6306;47.134;15.344;2022-08-05T10:24:29;4.70;;;4.27;;
12482;SDS011;6306;47.134;15.344;2022-08-05T10:26:56;4.57;;;4.17;;
12482;SDS011;6306;47.134;15.344;2022-08-05T10:29:24;3.90;;;3.60;;
12482;SDS011;6306;47.134;15.344;2022-08-05T10:31:51;6.07;;;4.60;;
12482;SDS011;6306;47.134;15.344;2022-08-05T10:34:17;4.57;;;4.27;;
12482;SDS011;6306;47.134;15.344;2022-08-05T10:36:43;4.43;;;4.10;;
12482;SDS011;6306;47.134;15.344;2022-08-05T10:39:14;4.23;;;3.80;;
12482;SDS011;6306;47.134;15.344;2022-08-05T10:44:21;4.33;;;4.03;;
12482;SDS011;6306;47.134;15.344;2022-08-05T10:46:49;4.77;;;4.37;;
12482;SDS011;6306;47.134;15.344;2022-08-05T10:49:15;4.00;;;3.70;;
12482;SDS011;6306;47.134;15.344;2022-08-05T10:51:45;5.17;;;4.67;;
12482;SDS011;6306;47.134;15.344;2022-08-05T10:54:12;4.10;;;3.80;;
12482;SDS011;6306;47.134;15.344;2022-08-05T10:56:50;3.83;;;3.53;;
12482;SDS011;6306;47.134;15.344;2022-08-05T10:59:26;5.50;;;5.10;;
12482;SDS011;6306;47.134;15.344;2022-08-05T11:02:09;3.93;;;3.73;;
12482;SDS011;6306;47.134;15.344;2022-08-05T11:04:45;4.37;;;4.07;;
12482;SDS011;6306;47.134;15.344;2022-08-05T11:07:12;5.93;;;4.17;;
12482;SDS011;6306;47.134;15.344;2022-08-05T11:17:33;4.90;;;4.17;;
12482;SDS011;6306;47.134;15.344;2022-08-05T11:20:03;4.43;;;4.03;;
12482;SDS011;6306;47.134;15.344;2022-08-05T11:27:49;4.80;;;4.40;;
12482;SDS011;6306;47.134;15.344;2022-08-05T11:30:15;6.53;;;4.70;;
12482;SDS011;6306;47.134;15.344;2022-08-05T11:32:41;3.63;;;3.43;;
12482;SDS011;6306;47.134;15.344;2022-08-05T11:35:07;4.43;;;4.03;;
12482;SDS011;6306;47.134;15.344;2022-08-05T11:40:19;4.60;;;4.20;;
12482;SDS011;6306;47.134;15.344;2022-08-05T11:42:45;4.33;;;4.07;;
12482;SDS011;6306;47.134;15.344;2022-08-05T11:45:11;4.03;;;3.63;;
12482;SDS011;6306;47.134;15.344;2022-08-05T11:47:37;4.40;;;4.00;;
12482;SDS011;6306;47.134;15.344;2022-08-05T11:50:03;4.43;;;4.07;;
12482;SDS011;6306;47.134;15.344;2022-08-05T11:52:30;4.87;;;4.33;;
12482;SDS011;6306;47.134;15.344;2022-08-05T11:54:56;4.23;;;3.83;;
12482;SDS011;6306;47.134;15.344;2022-08-05T11:57:27;4.20;;;3.90;;
12482;SDS011;6306;47.134;15.344;2022-08-05T11:59:53;4.73;;;4.43;;
12482;SDS011;6306;47.134;15.344;2022-08-05T12:02:23;4.10;;;3.77;;
12482;SDS011;6306;47.134;15.344;2022-08-05T12:04:50;4.30;;;3.47;;
12482;SDS011;6306;47.134;15.344;2022-08-05T12:07:16;3.23;;;3.03;;
12482;SDS011;6306;47.134;15.344;2022-08-05T12:09:52;4.50;;;4.20;;
12482;SDS011;6306;47.134;15.344;2022-08-05T12:12:22;4.13;;;3.83;;
12482;SDS011;6306;47.134;15.344;2022-08-05T12:14:48;3.37;;;3.17;;
12482;SDS011;6306;47.134;15.344;2022-08-05T12:17:14;4.13;;;3.83;;
12482;SDS011;6306;47.134;15.344;2022-08-05T12:22:06;3.80;;;3.60;;
12482;SDS011;6306;47.134;15.344;2022-08-05T12:24:33;12.60;;;4.20;;
12482;SDS011;6306;47.134;15.344;2022-08-05T12:26:59;4.13;;;3.70;;
12482;SDS011;6306;47.134;15.344;2022-08-05T12:29:26;3.73;;;3.53;;
12482;SDS011;6306;47.134;15.344;2022-08-05T12:31:56;3.83;;;3.60;;
12482;SDS011;6306;47.134;15.344;2022-08-05T12:34:24;5.47;;;4.97;;
12482;SDS011;6306;47.134;15.344;2022-08-05T12:36:54;3.83;;;3.57;;
12482;SDS011;6306;47.134;15.344;2022-08-05T12:39:21;4.57;;;4.27;;
12482;SDS011;6306;47.134;15.344;2022-08-05T12:41:48;3.50;;;3.20;;
12482;SDS011;6306;47.134;15.344;2022-08-05T12:44:14;3.90;;;3.60;;
12482;SDS011;6306;47.134;15.344;2022-08-05T12:46:41;3.73;;;3.43;;
12482;SDS011;6306;47.134;15.344;2022-08-05T12:49:13;3.50;;;3.30;;
12482;SDS011;6306;47.134;15.344;2022-08-05T12:51:43;4.10;;;3.80;;
12482;SDS011;6306;47.134;15.344;2022-08-05T12:54:10;3.83;;;3.63;;
12482;SDS011;6306;47.134;15.344;2022-08-05T12:56:41;4.57;;;4.27;;
12482;SDS011;6306;47.134;15.344;2022-08-05T12:59:20;3.90;;;3.70;;
12482;SDS011;6306;47.134;15.344;2022-08-05T13:04:24;3.90;;;3.70;;
12482;SDS011;6306;47.134;15.344;2022-08-05T13:06:51;4.53;;;4.20;;
12482;SDS011;6306;47.134;15.344;2022-08-05T13:09:17;4.37;;;4.07;;
12482;SDS011;6306;47.134;15.344;2022-08-05T13:11:43;3.90;;;3.60;;
12482;SDS011;6306;47.134;15.344;2022-08-05T13:16:54;7.20;;;4.57;;
12482;SDS011;6306;47.134;15.344;2022-08-05T13:19:21;4.40;;;4.10;;
12482;SDS011;6306;47.134;15.344;2022-08-05T13:21:47;3.67;;;3.43;;
12482;SDS011;6306;47.134;15.344;2022-08-05T13:24:14;4.43;;;4.13;;
12482;SDS011;6306;47.134;15.344;2022-08-05T13:26:41;4.03;;;3.73;;
12482;SDS011;6306;47.134;15.344;2022-08-05T13:29:07;3.77;;;3.57;;
12482;SDS011;6306;47.134;15.344;2022-08-05T13:31:33;4.03;;;3.73;;
12482;SDS011;6306;47.134;15.344;2022-08-05T13:33:59;4.23;;;3.90;;
12482;SDS011;6306;47.134;15.344;2022-08-05T13:36:25;3.90;;;3.63;;
12482;SDS011;6306;47.134;15.344;2022-08-05T13:38:51;4.20;;;3.90;;
12482;SDS011;6306;47.134;15.344;2022-08-05T13:41:17;4.50;;;4.20;;
12482;SDS011;6306;47.134;15.344;2022-08-05T13:43:43;4.47;;;4.17;;
12482;SDS011;6306;47.134;15.344;2022-08-05T13:46:09;4.07;;;3.77;;
12482;SDS011;6306;47.134;15.344;2022-08-05T13:48:36;4.27;;;3.97;;
12482;SDS011;6306;47.134;15.344;2022-08-05T13:51:06;4.77;;;4.47;;
12482;SDS011;6306;47.134;15.344;2022-08-05T13:53:32;3.33;;;3.13;;
12482;SDS011;6306;47.134;15.344;2022-08-05T13:55:59;7.57;;;3.97;;
12482;SDS011;6306;47.134;15.344;2022-08-05T13:58:25;4.77;;;4.17;;
12482;SDS011;6306;47.134;15.344;2022-08-05T14:00:51;3.87;;;3.60;;
12482;SDS011;6306;47.134;15.344;2022-08-05T14:03:17;4.00;;;3.70;;
12482;SDS011;6306;47.134;15.344;2022-08-05T14:05:43;4.27;;;3.97;;
12482;SDS011;6306;47.134;15.344;2022-08-05T14:08:09;3.87;;;3.57;;
12482;SDS011;6306;47.134;15.344;2022-08-05T14:10:35;4.80;;;4.43;;
12482;SDS011;6306;47.134;15.344;2022-08-05T14:13:02;4.00;;;3.70;;
12482;SDS011;6306;47.134;15.344;2022-08-05T14:15:31;4.30;;;3.90;;
12482;SDS011;6306;47.134;15.344;2022-08-05T14:17:57;4.13;;;3.80;;
12482;SDS011;6306;47.134;15.344;2022-08-05T14:20:23;4.10;;;3.70;;
12482;SDS011;6306;47.134;15.344;2022-08-05T14:22:49;3.73;;;3.43;;
12482;SDS011;6306;47.134;15.344;2022-08-05T14:25:15;3.90;;;3.70;;
12482;SDS011;6306;47.134;15.344;2022-08-05T14:27:42;3.67;;;3.30;;
12482;SDS011;6306;47.134;15.344;2022-08-05T14:30:09;4.40;;;4.10;;
12482;SDS011;6306;47.134;15.344;2022-08-05T14:32:35;3.90;;;3.60;;
12482;SDS011;6306;47.134;15.344;2022-08-05T14:35:01;4.40;;;4.00;;
12482;SDS011;6306;47.134;15.344;2022-08-05T14:37:28;3.73;;;3.47;;
12482;SDS011;6306;47.134;15.344;2022-08-05T14:39:54;3.93;;;3.73;;
12482;SDS011;6306;47.134;15.344;2022-08-05T14:42:20;3.87;;;3.53;;
12482;SDS011;6306;47.134;15.344;2022-08-05T14:44:46;3.57;;;3.33;;
12482;SDS011;6306;47.134;15.344;2022-08-05T14:47:12;3.37;;;3.10;;
12482;SDS011;6306;47.134;15.344;2022-08-05T14:49:38;3.40;;;3.10;;
12482;SDS011;6306;47.134;15.344;2022-08-05T14:52:04;4.23;;;3.87;;
12482;SDS011;6306;47.134;15.344;2022-08-05T14:54:30;3.93;;;3.63;;
12482;SDS011;6306;47.134;15.344;2022-08-05T14:56:56;4.27;;;3.93;;
12482;SDS011;6306;47.134;15.344;2022-08-05T14:59:23;4.43;;;4.13;;
12482;SDS011;6306;47.134;15.344;2022-08-05T15:01:49;4.10;;;3.73;;
12482;SDS011;6306;47.134;15.344;2022-08-05T15:04:18;4.30;;;4.00;;
12482;SDS011;6306;47.134;15.344;2022-08-05T15:06:44;3.93;;;3.73;;
12482;SDS011;6306;47.134;15.344;2022-08-05T15:09:10;4.60;;;4.20;;
12482;SDS011;6306;47.134;15.344;2022-08-05T15:11:36;3.03;;;2.87;;
12482;SDS011;6306;47.134;15.344;2022-08-05T15:14:02;4.40;;;4.10;;
12482;SDS011;6306;47.134;15.344;2022-08-05T15:16:29;6.30;;;4.80;;
12482;SDS011;6306;47.134;15.344;2022-08-05T15:18:55;4.20;;;3.90;;
12482;SDS011;6306;47.134;15.344;2022-08-05T15:21:21;4.00;;;3.70;;
12482;SDS011;6306;47.134;15.344;2022-08-05T15:23:47;4.57;;;4.17;;
12482;SDS011;6306;47.134;15.344;2022-08-05T15:26:13;3.70;;;3.50;;
12482;SDS011;6306;47.134;15.344;2022-08-05T15:28:41;4.73;;;4.33;;
12482;SDS011;6306;47.134;15.344;2022-08-05T15:31:07;5.20;;;4.80;;